createdAt,value
2018-10-15T00:00:03.184Z,0.20
2018-10-15T00:01:03.691Z,0.00
2018-10-15T00:02:03.828Z,0.00
2018-10-15T00:03:03.988Z,0.00
2018-10-15T00:04:04.126Z,0.00
2018-10-15T00:05:04.233Z,0.08
2018-10-15T00:06:04.429Z,0.00
2018-10-15T00:08:04.572Z,0.10
2018-10-15T00:09:04.755Z,0.01
2018-10-15T00:10:04.967Z,0.01
2018-10-15T00:11:05.081Z,0.00
2018-10-15T00:12:05.204Z,0.00
2018-10-15T00:13:05.325Z,0.00
2018-10-15T00:14:05.431Z,0.00
2018-10-15T00:15:05.582Z,0.07
2018-10-15T00:16:05.637Z,0.34
2018-10-15T00:17:05.781Z,0.01
2018-10-15T00:18:05.881Z,0.00
2018-10-15T00:19:05.975Z,0.00
2018-10-15T00:20:06.120Z,0.00
2018-10-15T00:21:06.225Z,0.00
2018-10-15T00:22:06.393Z,0.00
2018-10-15T00:23:06.443Z,0.00
2018-10-15T00:24:06.539Z,0.00
2018-10-15T00:25:06.630Z,0.00
2018-10-15T00:26:06.683Z,0.07
2018-10-15T00:27:06.791Z,0.00
2018-10-15T00:28:06.903Z,0.00
2018-10-15T00:29:07.064Z,0.00
2018-10-15T00:30:06.780Z,0.00
2018-10-15T00:31:07.368Z,0.00
2018-10-15T00:32:07.448Z,0.00
2018-10-15T00:33:07.520Z,0.00
2018-10-15T00:34:07.574Z,0.00
2018-10-15T00:35:07.667Z,0.00
2018-10-15T00:36:08.055Z,0.00
2018-10-15T00:37:08.183Z,0.00
2018-10-15T00:38:08.197Z,0.00
2018-10-15T00:39:08.238Z,0.00
2018-10-15T00:40:08.298Z,0.11
2018-10-15T00:41:08.537Z,0.24
2018-10-15T00:42:08.582Z,0.41
2018-10-15T00:43:08.648Z,0.23
2018-10-15T00:44:08.732Z,0.00
2018-10-15T00:45:09.080Z,0.10
2018-10-15T00:46:09.173Z,0.25
2018-10-15T00:48:09.231Z,0.18
2018-10-15T00:49:09.271Z,0.00
2018-10-15T00:50:14.440Z,0.00
2018-10-15T00:51:09.728Z,0.00
2018-10-15T00:52:10.014Z,0.00
2018-10-15T00:53:10.324Z,0.00
2018-10-15T00:54:10.595Z,0.04
2018-10-15T00:55:10.865Z,0.32
2018-10-15T00:56:10.899Z,0.04
2018-10-15T00:57:11.163Z,0.27
2018-10-15T00:58:11.581Z,0.28
2018-10-15T00:59:11.984Z,0.46
2018-10-15T01:00:12.539Z,0.70
2018-10-15T01:01:12.732Z,0.74
2018-10-15T01:02:13.081Z,0.34
2018-10-15T01:03:13.353Z,0.04
2018-10-15T01:04:13.605Z,0.01
2018-10-15T01:05:14.161Z,0.13
2018-10-15T01:06:14.041Z,0.03
2018-10-15T01:07:14.241Z,0.00
2018-10-15T01:08:14.525Z,0.00
2018-10-15T01:09:14.785Z,0.00
2018-10-15T01:10:15.237Z,0.00
2018-10-15T01:11:15.976Z,0.00
2018-10-15T01:12:15.791Z,0.00
2018-10-15T01:13:16.199Z,0.00
2018-10-15T01:14:16.491Z,0.10
2018-10-15T01:15:16.763Z,0.39
2018-10-15T01:16:17.009Z,0.07
2018-10-15T01:17:17.261Z,0.28
2018-10-15T01:18:17.711Z,0.10
2018-10-15T01:19:18.401Z,0.00
2018-10-15T01:20:18.304Z,0.00
2018-10-15T01:21:18.911Z,0.32
2018-10-15T01:22:19.039Z,0.17
2018-10-15T01:23:19.138Z,0.01
2018-10-15T01:24:19.278Z,0.00
2018-10-15T01:25:19.469Z,0.00
2018-10-15T01:26:19.576Z,0.00
2018-10-15T01:27:19.723Z,0.00
2018-10-15T01:28:19.846Z,0.01
2018-10-15T01:29:20.034Z,0.00
2018-10-15T01:30:20.217Z,0.00
2018-10-15T01:31:20.363Z,0.00
2018-10-15T01:32:20.478Z,0.00
2018-10-15T01:33:20.603Z,0.00
2018-10-15T01:34:20.735Z,0.00
2018-10-15T01:35:20.873Z,0.00
2018-10-15T01:36:21.004Z,0.00
2018-10-15T01:37:21.192Z,0.00
2018-10-15T01:38:21.352Z,0.00
2018-10-15T01:39:21.529Z,0.00
2018-10-15T01:40:21.618Z,0.00
2018-10-15T01:41:21.725Z,0.20
2018-10-15T01:42:21.824Z,0.28
2018-10-15T01:43:22.030Z,0.31
2018-10-15T01:44:22.093Z,0.18
2018-10-15T01:45:22.236Z,0.03
2018-10-15T01:46:22.306Z,0.00
2018-10-15T01:47:22.416Z,0.00
2018-10-15T01:48:22.461Z,0.00
2018-10-15T01:49:22.545Z,0.00
2018-10-15T01:50:22.638Z,0.00
2018-10-15T01:51:22.695Z,0.00
2018-10-15T01:52:22.775Z,0.00
2018-10-15T01:53:22.853Z,0.00
2018-10-15T01:54:22.940Z,0.00
2018-10-15T01:55:23.695Z,0.00
2018-10-15T01:56:23.290Z,0.01
2018-10-15T01:57:23.368Z,0.00
2018-10-15T01:58:23.643Z,0.00
2018-10-15T01:59:23.747Z,0.00
2018-10-15T02:00:23.828Z,0.00
2018-10-15T02:01:23.890Z,0.00
2018-10-15T02:02:24.121Z,0.00
2018-10-15T02:03:24.404Z,0.00
2018-10-15T02:04:24.671Z,0.00
2018-10-15T02:05:24.948Z,0.00
2018-10-15T02:06:25.231Z,0.00
2018-10-15T02:07:25.572Z,0.00
2018-10-15T02:08:25.863Z,0.00
2018-10-15T02:09:26.139Z,0.00
2018-10-15T02:10:26.443Z,0.00
2018-10-15T02:11:26.732Z,0.00
2018-10-15T02:12:27.028Z,0.00
2018-10-15T02:13:27.294Z,0.22
2018-10-15T02:14:27.594Z,0.42
2018-10-15T02:15:27.859Z,0.41
2018-10-15T02:16:28.125Z,0.00
2018-10-15T02:17:28.400Z,0.00
2018-10-15T02:18:28.657Z,0.22
2018-10-15T02:19:28.936Z,0.38
2018-10-15T02:20:29.213Z,0.03
2018-10-15T02:21:29.497Z,0.00
2018-10-15T02:22:29.765Z,0.38
2018-10-15T02:23:30.140Z,0.70
2018-10-15T02:24:30.446Z,0.67
2018-10-15T02:25:30.930Z,0.45
2018-10-15T02:26:31.221Z,0.08
2018-10-15T02:27:31.567Z,0.35
2018-10-15T02:28:31.849Z,0.22
2018-10-15T02:29:32.346Z,0.00
2018-10-15T02:30:32.616Z,0.00
2018-10-15T02:31:32.892Z,0.00
2018-10-15T02:32:33.393Z,0.00
2018-10-15T02:33:34.049Z,0.00
2018-10-15T02:34:34.354Z,0.00
2018-10-15T02:35:34.452Z,0.00
2018-10-15T02:36:34.655Z,0.00
2018-10-15T02:37:34.947Z,0.00
2018-10-15T02:38:35.119Z,0.00
2018-10-15T02:39:35.288Z,0.00
2018-10-15T02:40:35.442Z,0.00
2018-10-15T02:41:35.564Z,0.00
2018-10-15T02:42:35.677Z,0.01
2018-10-15T02:43:36.141Z,0.00
2018-10-15T02:44:36.279Z,0.00
2018-10-15T02:45:36.320Z,0.00
2018-10-15T02:46:36.438Z,0.00
2018-10-15T02:47:36.624Z,0.04
2018-10-15T02:48:37.019Z,0.25
2018-10-15T02:49:37.169Z,0.45
2018-10-15T02:50:37.257Z,0.32
2018-10-15T02:51:37.336Z,1.25
2018-10-15T02:52:37.433Z,1.11
2018-10-15T02:53:37.743Z,1.39
2018-10-15T02:54:37.872Z,0.93
2018-10-15T02:55:37.988Z,0.73
2018-10-15T02:56:38.078Z,0.23
2018-10-15T02:57:38.185Z,0.04
2018-10-15T02:58:38.351Z,0.15
2018-10-15T02:59:38.475Z,0.07
2018-10-15T03:00:38.410Z,0.35
2018-10-15T03:01:39.239Z,0.64
2018-10-15T03:02:39.439Z,1.03
2018-10-15T03:03:39.172Z,1.24
2018-10-15T03:05:39.494Z,1.33
2018-10-15T03:06:39.865Z,1.32
2018-10-15T03:07:40.123Z,1.45
2018-10-15T03:08:40.392Z,1.01
2018-10-15T03:09:41.067Z,1.07
2018-10-15T03:10:40.877Z,0.93
2018-10-15T03:11:41.160Z,0.98
2018-10-15T03:12:41.455Z,1.03
2018-10-15T03:13:41.735Z,0.42
2018-10-15T03:14:42.008Z,0.82
2018-10-15T03:15:42.324Z,0.97
2018-10-15T03:16:42.929Z,1.14
2018-10-15T03:17:42.695Z,1.19
2018-10-15T03:18:42.955Z,1.28
2018-10-15T03:19:43.564Z,1.28
2018-10-15T03:20:43.360Z,1.70
2018-10-15T03:21:43.626Z,1.53
2018-10-15T03:22:43.898Z,1.26
2018-10-15T03:23:44.179Z,1.31
2018-10-15T03:24:44.617Z,1.53
2018-10-15T03:25:44.891Z,1.72
2018-10-15T03:26:45.144Z,1.22
2018-10-15T03:27:45.404Z,1.38
2018-10-15T03:28:45.670Z,1.60
2018-10-15T03:29:46.233Z,1.18
2018-10-15T03:30:46.232Z,1.21
2018-10-15T03:31:46.481Z,1.22
2018-10-15T03:32:46.756Z,0.74
2018-10-15T03:33:47.021Z,0.65
2018-10-15T03:34:47.346Z,0.20
2018-10-15T03:35:47.628Z,0.00
2018-10-15T03:36:47.895Z,0.00
2018-10-15T03:37:48.483Z,0.00
2018-10-15T03:38:48.486Z,0.00
2018-10-15T03:39:48.660Z,0.00
2018-10-15T03:40:48.842Z,0.00
2018-10-15T03:41:48.973Z,0.00
2018-10-15T03:42:49.059Z,0.00
2018-10-15T03:43:49.208Z,0.00
2018-10-15T03:44:49.283Z,0.00
2018-10-15T03:45:49.431Z,0.00
2018-10-15T03:46:49.620Z,0.00
2018-10-15T03:47:49.738Z,0.00
2018-10-15T03:48:49.877Z,0.00
2018-10-15T03:49:50.090Z,0.00
2018-10-15T03:50:50.270Z,0.00
2018-10-15T03:51:50.421Z,0.00
2018-10-15T03:52:50.567Z,0.00
2018-10-15T03:53:50.732Z,0.00
2018-10-15T03:54:50.804Z,0.00
2018-10-15T03:55:50.974Z,0.00
2018-10-15T03:56:51.060Z,0.00
2018-10-15T03:57:51.162Z,0.00
2018-10-15T03:58:51.232Z,0.00
2018-10-15T03:59:51.308Z,0.00
2018-10-15T04:00:51.438Z,0.00
2018-10-15T04:01:51.562Z,0.00
2018-10-15T04:02:51.659Z,0.34
2018-10-15T04:03:51.837Z,0.58
2018-10-15T04:04:51.945Z,0.45
2018-10-15T04:05:52.092Z,0.35
2018-10-15T04:06:52.114Z,0.30
2018-10-15T04:07:52.247Z,0.06
2018-10-15T04:08:52.364Z,0.01
2018-10-15T04:09:52.458Z,0.14
2018-10-15T04:10:52.524Z,0.00
2018-10-15T04:11:52.594Z,0.00
2018-10-15T04:12:52.665Z,0.00
2018-10-15T04:13:52.782Z,0.00
2018-10-15T04:14:52.867Z,0.34
2018-10-15T04:15:52.962Z,0.45
2018-10-15T04:16:53.035Z,0.48
2018-10-15T04:17:53.111Z,0.27
2018-10-15T04:18:53.183Z,0.34
2018-10-15T04:19:53.283Z,0.28
2018-10-15T04:20:53.507Z,0.04
2018-10-15T04:21:53.568Z,0.01
2018-10-15T04:22:53.655Z,0.00
2018-10-15T04:23:53.752Z,0.00
2018-10-15T04:24:53.853Z,0.00
2018-10-15T04:25:54.045Z,0.00
2018-10-15T04:26:54.146Z,0.00
2018-10-15T04:27:54.127Z,0.00
2018-10-15T04:28:54.723Z,0.00
2018-10-15T04:29:54.529Z,0.00
2018-10-15T04:30:54.807Z,0.00
2018-10-15T04:31:55.094Z,0.00
2018-10-15T04:32:55.477Z,0.00
2018-10-15T04:33:55.744Z,0.00
2018-10-15T04:34:56.133Z,0.00
2018-10-15T04:35:56.437Z,0.00
2018-10-15T04:36:56.703Z,0.00
2018-10-15T04:37:57.038Z,0.00
2018-10-15T04:38:57.294Z,0.00
2018-10-15T04:39:57.542Z,0.00
2018-10-15T04:40:57.861Z,0.00
2018-10-15T04:41:58.130Z,0.00
2018-10-15T04:42:58.420Z,0.00
2018-10-15T04:43:58.681Z,0.00
2018-10-15T04:44:58.964Z,0.00
2018-10-15T04:45:59.241Z,0.00
2018-10-15T04:46:59.755Z,0.00
2018-10-15T04:47:59.898Z,0.00
2018-10-15T04:49:00.316Z,0.00
2018-10-15T04:50:00.544Z,0.00
2018-10-15T04:51:00.790Z,0.01
2018-10-15T04:52:01.117Z,0.00
2018-10-15T04:53:01.401Z,0.00
2018-10-15T04:54:01.830Z,0.00
2018-10-15T04:55:02.059Z,0.00
2018-10-15T04:56:02.293Z,0.00
2018-10-15T04:57:02.554Z,0.00
2018-10-15T04:58:03.105Z,0.00
2018-10-15T04:59:03.767Z,0.00
2018-10-15T05:00:04.047Z,0.00
2018-10-15T05:01:04.054Z,0.00
2018-10-15T05:02:04.180Z,0.10
2018-10-15T05:03:04.350Z,0.32
2018-10-15T05:04:04.515Z,0.04
2018-10-15T05:05:04.873Z,0.01
2018-10-15T05:06:05.041Z,0.00
2018-10-15T05:07:05.171Z,0.00
2018-10-15T05:08:05.344Z,0.01
2018-10-15T05:09:05.470Z,0.00
2018-10-15T05:10:05.910Z,0.00
2018-10-15T05:11:05.960Z,0.00
2018-10-15T05:12:06.115Z,0.00
2018-10-15T05:13:06.146Z,0.00
2018-10-15T05:14:06.299Z,0.00
2018-10-15T05:15:06.315Z,0.00
2018-10-15T05:16:06.562Z,0.25
2018-10-15T05:17:06.666Z,0.08
2018-10-15T05:18:06.847Z,0.10
2018-10-15T05:19:06.996Z,0.00
2018-10-15T05:20:07.133Z,0.00
2018-10-15T05:21:07.591Z,0.00
2018-10-15T05:22:07.652Z,0.00
2018-10-15T05:23:07.734Z,0.00
2018-10-15T05:24:08.133Z,0.00
2018-10-15T05:25:08.186Z,0.00
2018-10-15T05:26:08.273Z,0.00
2018-10-15T05:27:08.413Z,0.00
2018-10-15T05:28:08.525Z,0.00
2018-10-15T05:29:08.738Z,0.00
2018-10-15T05:30:09.120Z,0.00
2018-10-15T05:31:09.243Z,0.00
2018-10-15T05:32:09.342Z,0.00
2018-10-15T05:33:09.461Z,0.00
2018-10-15T05:34:09.467Z,0.03
2018-10-15T05:35:09.460Z,0.38
2018-10-15T05:37:09.936Z,0.03
2018-10-15T05:38:10.339Z,0.00
2018-10-15T05:39:10.624Z,0.00
2018-10-15T05:40:10.636Z,0.00
2018-10-15T05:41:10.934Z,0.00
2018-10-15T05:42:11.210Z,0.00
2018-10-15T05:43:11.439Z,0.00
2018-10-15T05:44:11.827Z,0.00
2018-10-15T05:45:12.245Z,0.00
2018-10-15T05:46:12.628Z,0.00
2018-10-15T05:47:12.913Z,0.00
2018-10-15T05:48:13.305Z,0.00
2018-10-15T05:49:13.512Z,0.00
2018-10-15T05:50:14.316Z,0.00
2018-10-15T05:51:14.097Z,0.00
2018-10-15T05:52:14.581Z,0.00
2018-10-15T05:53:14.777Z,0.00
2018-10-15T05:54:15.133Z,0.00
2018-10-15T05:55:15.691Z,0.00
2018-10-15T05:56:15.462Z,0.00
2018-10-15T05:57:15.792Z,0.00
2018-10-15T05:58:16.211Z,0.07
2018-10-15T05:59:16.480Z,0.04
2018-10-15T06:00:17.227Z,0.14
2018-10-15T06:01:16.877Z,0.06
2018-10-15T06:02:17.190Z,0.24
2018-10-15T06:03:17.495Z,0.15
2018-10-15T06:04:17.762Z,0.21
2018-10-15T06:06:18.293Z,0.23
2018-10-15T06:07:18.880Z,0.06
2018-10-15T06:08:18.955Z,0.48
2018-10-15T06:09:19.064Z,0.25
2018-10-15T06:10:19.266Z,0.01
2018-10-15T06:11:19.394Z,0.08
2018-10-15T06:12:19.618Z,0.00
2018-10-15T06:13:20.231Z,0.00
2018-10-15T06:14:19.776Z,0.00
2018-10-15T06:15:19.921Z,0.00
2018-10-15T06:16:20.107Z,0.00
2018-10-15T06:17:20.282Z,0.00
2018-10-15T06:18:20.574Z,0.00
2018-10-15T06:19:20.567Z,0.07
2018-10-15T06:20:20.737Z,0.28
2018-10-15T06:21:20.888Z,0.37
2018-10-15T06:22:20.991Z,0.39
2018-10-15T06:23:21.107Z,0.32
2018-10-15T06:24:21.275Z,0.00
2018-10-15T06:25:21.348Z,0.00
2018-10-15T06:26:21.468Z,0.00
2018-10-15T06:27:21.634Z,0.00
2018-10-15T06:28:21.859Z,0.00
2018-10-15T06:29:21.925Z,0.00
2018-10-15T06:30:22.136Z,0.00
2018-10-15T06:31:22.184Z,0.00
2018-10-15T06:32:22.280Z,0.34
2018-10-15T06:33:22.290Z,0.15
2018-10-15T06:34:22.371Z,0.00
2018-10-15T06:35:22.488Z,0.00
2018-10-15T06:36:22.708Z,0.00
2018-10-15T06:37:22.776Z,0.00
2018-10-15T06:38:22.771Z,0.01
2018-10-15T06:39:22.866Z,0.00
2018-10-15T06:40:22.904Z,0.00
2018-10-15T06:41:23.014Z,0.00
2018-10-15T06:42:23.110Z,0.01
2018-10-15T06:43:23.188Z,0.00
2018-10-15T06:44:23.409Z,0.00
2018-10-15T06:45:23.635Z,0.00
2018-10-15T06:46:23.566Z,0.07
2018-10-15T06:47:23.768Z,0.23
2018-10-15T06:48:23.746Z,0.18
2018-10-15T06:49:24.035Z,0.14
2018-10-15T06:50:28.959Z,0.01
2018-10-15T06:51:24.516Z,0.00
2018-10-15T06:52:24.411Z,0.00
2018-10-15T06:53:24.749Z,0.00
2018-10-15T06:54:25.145Z,0.00
2018-10-15T06:55:25.637Z,0.00
2018-10-15T06:56:25.637Z,0.00
2018-10-15T06:57:25.923Z,0.00
2018-10-15T06:58:26.204Z,0.00
2018-10-15T06:59:26.570Z,0.13
2018-10-15T07:00:26.864Z,0.39
2018-10-15T07:01:27.193Z,0.10
2018-10-15T07:02:27.581Z,0.11
2018-10-15T07:03:27.854Z,0.00
2018-10-15T07:04:28.283Z,0.00
2018-10-15T07:05:28.599Z,0.00
2018-10-15T07:06:28.865Z,0.00
2018-10-15T07:07:29.390Z,0.00
2018-10-15T07:08:29.537Z,0.00
2018-10-15T07:09:29.820Z,0.00
2018-10-15T07:10:30.381Z,0.00
2018-10-15T07:11:30.143Z,0.00
2018-10-15T07:12:30.402Z,0.14
2018-10-15T07:13:30.694Z,0.37
2018-10-15T07:14:30.952Z,0.77
2018-10-15T07:15:31.383Z,0.66
2018-10-15T07:16:31.637Z,0.67
2018-10-15T07:17:31.904Z,0.45
2018-10-15T07:18:32.154Z,0.88
2018-10-15T07:19:32.468Z,1.59
2018-10-15T07:20:33.200Z,1.68
2018-10-15T07:21:33.015Z,1.10
2018-10-15T07:22:33.648Z,0.27
2018-10-15T07:23:33.985Z,0.03
2018-10-15T07:24:34.109Z,0.00
2018-10-15T07:25:34.271Z,0.73
2018-10-15T07:26:34.425Z,0.66
2018-10-15T07:27:34.544Z,0.80
2018-10-15T07:29:34.727Z,0.45
2018-10-15T07:30:34.921Z,0.38
2018-10-15T07:31:34.917Z,0.49
2018-10-15T07:32:35.051Z,0.93
2018-10-15T07:33:35.239Z,0.59
2018-10-15T07:34:35.277Z,0.30
2018-10-15T07:35:35.377Z,0.01
2018-10-15T07:36:35.517Z,0.34
2018-10-15T07:37:35.654Z,0.77
2018-10-15T07:38:35.821Z,0.75
2018-10-15T07:39:35.940Z,0.56
2018-10-15T07:40:36.074Z,0.08
2018-10-15T07:41:36.193Z,0.04
2018-10-15T07:42:36.155Z,0.31
2018-10-15T07:43:36.819Z,0.14
2018-10-15T07:44:37.011Z,0.01
2018-10-15T07:45:37.076Z,0.01
2018-10-15T07:46:37.170Z,0.01
2018-10-15T07:47:37.260Z,0.03
2018-10-15T07:48:37.357Z,0.27
2018-10-15T07:49:37.370Z,0.01
2018-10-15T07:50:37.425Z,0.24
2018-10-15T07:51:37.521Z,0.82
2018-10-15T07:52:37.630Z,0.70
2018-10-15T07:53:37.913Z,0.48
2018-10-15T07:54:37.989Z,1.41
2018-10-15T07:55:38.132Z,0.88
2018-10-15T07:56:38.184Z,0.94
2018-10-15T07:57:38.247Z,0.90
2018-10-15T07:58:38.353Z,1.41
2018-10-15T07:59:38.401Z,2.24
2018-10-15T08:00:38.678Z,1.38
2018-10-15T08:01:38.702Z,1.13
2018-10-15T08:02:38.817Z,2.00
2018-10-15T08:03:38.884Z,1.73
2018-10-15T08:04:38.950Z,0.85
2018-10-15T08:05:39.281Z,0.95
2018-10-15T08:06:39.276Z,0.79
2018-10-15T08:07:39.270Z,0.72
2018-10-15T08:08:39.675Z,0.64
2018-10-15T08:09:39.772Z,2.34
2018-10-15T08:10:40.021Z,1.24
2018-10-15T08:11:40.286Z,0.88
2018-10-15T08:12:40.552Z,1.58
2018-10-15T08:13:40.690Z,2.16
2018-10-15T08:14:41.076Z,1.36
2018-10-15T08:15:41.386Z,2.11
2018-10-15T08:16:41.466Z,2.39
2018-10-15T08:17:41.727Z,1.50
2018-10-15T08:18:42.195Z,2.52
2018-10-15T08:19:42.656Z,0.94
2018-10-15T08:20:42.920Z,0.22
2018-10-15T08:21:43.227Z,0.11
2018-10-15T08:22:43.459Z,1.21
2018-10-15T08:23:43.856Z,1.71
2018-10-15T08:24:44.104Z,1.28
2018-10-15T08:25:44.349Z,2.39
2018-10-15T08:26:44.613Z,1.69
2018-10-15T08:27:44.862Z,1.33
2018-10-15T08:28:45.355Z,1.01
2018-10-15T08:29:45.608Z,1.09
2018-10-15T08:30:46.083Z,0.53
2018-10-15T08:31:46.387Z,0.00
2018-10-15T08:32:46.655Z,0.07
2018-10-15T08:34:47.021Z,0.06
2018-10-15T08:35:47.210Z,0.42
2018-10-15T08:36:47.762Z,0.70
2018-10-15T08:37:47.569Z,2.42
2018-10-15T08:38:47.847Z,3.37
2018-10-15T08:39:48.396Z,3.16
2018-10-15T08:40:48.532Z,1.81
2018-10-15T08:41:48.745Z,2.54
2018-10-15T08:42:48.779Z,1.63
2018-10-15T08:43:49.055Z,1.71
2018-10-15T08:44:49.213Z,1.66
2018-10-15T08:45:49.386Z,1.70
2018-10-15T08:47:49.516Z,0.71
2018-10-15T08:48:49.735Z,1.08
2018-10-15T08:49:49.923Z,1.38
2018-10-15T08:50:50.056Z,0.86
2018-10-15T08:52:50.294Z,0.78
2018-10-15T08:53:50.335Z,0.10
2018-10-15T08:54:50.439Z,0.24
2018-10-15T08:55:50.574Z,0.35
2018-10-15T08:56:50.789Z,1.73
2018-10-15T08:57:50.952Z,1.22
2018-10-15T08:58:51.035Z,1.45
2018-10-15T08:59:51.221Z,1.03
2018-10-15T09:00:51.341Z,0.51
2018-10-15T09:01:51.538Z,0.86
2018-10-15T09:02:51.612Z,0.89
2018-10-15T09:03:51.768Z,1.54
2018-10-15T09:04:51.883Z,1.92
2018-10-15T09:05:51.893Z,1.54
2018-10-15T09:06:52.023Z,0.18
2018-10-15T09:07:52.322Z,0.28
2018-10-15T09:08:52.361Z,0.68
2018-10-15T09:09:52.349Z,0.51
2018-10-15T09:10:52.440Z,0.39
2018-10-15T09:11:52.388Z,1.85
2018-10-15T09:12:52.472Z,0.97
2018-10-15T09:13:52.518Z,0.59
2018-10-15T09:14:52.603Z,0.35
2018-10-15T09:15:52.689Z,1.28
2018-10-15T09:16:52.702Z,0.08
2018-10-15T09:17:52.851Z,0.75
2018-10-15T09:18:52.887Z,2.24
2018-10-15T09:19:52.952Z,1.37
2018-10-15T09:20:52.982Z,2.16
2018-10-15T09:21:53.067Z,2.06
2018-10-15T09:22:53.043Z,0.97
2018-10-15T09:23:53.139Z,1.68
2018-10-15T09:24:53.211Z,1.43
2018-10-15T09:25:53.555Z,0.75
2018-10-15T09:26:53.781Z,0.60
2018-10-15T09:27:53.640Z,0.52
2018-10-15T09:28:53.777Z,0.38
2018-10-15T09:29:53.942Z,1.28
2018-10-15T09:30:53.888Z,2.88
2018-10-15T09:31:54.259Z,2.36
2018-10-15T09:32:54.612Z,1.58
2018-10-15T09:33:54.849Z,1.42
2018-10-15T09:34:55.412Z,0.80
2018-10-15T09:35:55.626Z,1.69
2018-10-15T09:36:56.204Z,1.35
2018-10-15T09:37:56.554Z,0.48
2018-10-15T09:38:56.852Z,1.39
2018-10-15T09:39:57.134Z,0.98
2018-10-15T09:40:57.542Z,1.01
2018-10-15T09:41:57.825Z,1.16
2018-10-15T09:42:58.101Z,1.00
2018-10-15T09:43:58.599Z,1.22
2018-10-15T09:44:58.876Z,1.41
2018-10-15T09:45:59.107Z,1.08
2018-10-15T09:46:59.681Z,0.38
2018-10-15T09:47:59.847Z,0.77
2018-10-15T09:49:00.226Z,0.37
2018-10-15T09:50:00.446Z,1.81
2018-10-15T09:51:01.044Z,2.07
2018-10-15T09:52:00.738Z,1.38
2018-10-15T09:53:01.044Z,0.79
2018-10-15T09:54:01.396Z,1.11
2018-10-15T09:55:01.572Z,1.69
2018-10-15T09:56:01.679Z,1.07
2018-10-15T09:57:02.139Z,0.73
2018-10-15T09:58:02.361Z,0.80
2018-10-15T09:59:02.277Z,0.83
2018-10-15T10:00:02.316Z,1.86
2018-10-15T10:01:02.386Z,2.32
2018-10-15T10:02:03.035Z,1.01
2018-10-15T10:03:03.240Z,1.41
2018-10-15T10:04:02.821Z,0.28
2018-10-15T10:05:03.432Z,1.13
2018-10-15T10:06:03.566Z,2.18
2018-10-15T10:07:03.766Z,2.54
2018-10-15T10:08:03.907Z,2.45
2018-10-15T10:09:04.010Z,2.41
2018-10-15T10:10:04.042Z,1.75
2018-10-15T10:11:04.596Z,0.71
2018-10-15T10:12:04.708Z,1.01
2018-10-15T10:13:04.655Z,0.79
2018-10-15T10:14:04.730Z,1.09
2018-10-15T10:15:04.910Z,1.00
2018-10-15T10:16:04.847Z,0.32
2018-10-15T10:17:05.128Z,0.35
2018-10-15T10:18:05.260Z,0.83
2018-10-15T10:19:05.216Z,0.54
2018-10-15T10:20:05.266Z,0.38
2018-10-15T10:21:05.485Z,0.66
2018-10-15T10:22:05.621Z,1.13
2018-10-15T10:23:05.812Z,2.53
2018-10-15T10:24:05.998Z,2.01
2018-10-15T10:25:06.106Z,2.00
2018-10-15T10:26:06.545Z,1.81
2018-10-15T10:27:06.563Z,1.93
2018-10-15T10:28:06.705Z,1.61
2018-10-15T10:29:06.890Z,0.34
2018-10-15T10:30:07.142Z,0.76
2018-10-15T10:31:07.366Z,0.93
2018-10-15T10:32:07.468Z,1.66
2018-10-15T10:33:07.584Z,1.54
2018-10-15T10:34:07.527Z,0.72
2018-10-15T10:35:07.764Z,0.96
2018-10-15T10:36:08.104Z,0.83
2018-10-15T10:37:08.674Z,0.52
2018-10-15T10:38:08.898Z,0.55
2018-10-15T10:39:09.113Z,1.42
2018-10-15T10:40:09.399Z,1.56
2018-10-15T10:41:09.872Z,2.74
2018-10-15T10:42:09.810Z,3.01
2018-10-15T10:43:10.008Z,2.69
2018-10-15T10:44:10.269Z,1.51
2018-10-15T10:45:10.521Z,0.41
2018-10-15T10:46:10.936Z,0.62
2018-10-15T10:47:10.838Z,0.86
2018-10-15T10:48:11.031Z,0.80
2018-10-15T10:49:11.300Z,0.80
2018-10-15T10:50:11.744Z,0.86
2018-10-15T10:51:12.314Z,1.82
2018-10-15T10:52:12.079Z,1.54
2018-10-15T10:53:12.477Z,0.45
2018-10-15T10:54:12.776Z,1.00
2018-10-15T10:55:13.220Z,1.59
2018-10-15T10:56:13.473Z,0.81
2018-10-15T10:57:13.740Z,1.27
2018-10-15T10:58:14.010Z,1.25
2018-10-15T10:59:14.340Z,0.60
2018-10-15T11:00:14.637Z,0.45
2018-10-15T11:01:15.200Z,0.28
2018-10-15T11:02:15.062Z,0.73
2018-10-15T11:03:15.225Z,1.04
2018-10-15T11:04:15.751Z,1.52
2018-10-15T11:05:15.834Z,1.96
2018-10-15T11:06:15.721Z,2.42
2018-10-15T11:07:15.994Z,1.74
2018-10-15T11:08:16.273Z,1.49
2018-10-15T11:09:16.712Z,0.79
2018-10-15T11:10:17.273Z,1.29
2018-10-15T11:11:17.620Z,1.01
2018-10-15T11:12:17.380Z,1.04
2018-10-15T11:13:17.668Z,1.34
2018-10-15T11:14:18.053Z,0.94
2018-10-15T11:15:18.586Z,1.37
2018-10-15T11:16:18.713Z,1.55
2018-10-15T11:17:18.768Z,2.03
2018-10-15T11:18:18.908Z,1.54
2018-10-15T11:19:18.963Z,0.89
2018-10-15T11:20:19.015Z,1.16
2018-10-15T11:21:19.141Z,1.21
2018-10-15T11:22:19.297Z,1.51
2018-10-15T11:23:19.337Z,0.55
2018-10-15T11:24:19.533Z,0.79
2018-10-15T11:25:19.557Z,1.20
2018-10-15T11:26:19.671Z,0.66
2018-10-15T11:27:19.785Z,0.21
2018-10-15T11:28:19.902Z,0.66
2018-10-15T11:29:20.025Z,2.68
2018-10-15T11:30:20.158Z,1.45
2018-10-15T11:31:20.763Z,1.99
2018-10-15T11:32:20.435Z,1.18
2018-10-15T11:33:20.601Z,0.75
2018-10-15T11:34:20.831Z,1.44
2018-10-15T11:35:20.883Z,1.75
2018-10-15T11:36:20.966Z,0.93
2018-10-15T11:37:21.113Z,2.17
2018-10-15T11:38:21.165Z,2.80
2018-10-15T11:39:21.215Z,2.81
2018-10-15T11:40:21.261Z,1.27
2018-10-15T11:41:21.393Z,0.99
2018-10-15T11:42:21.477Z,2.18
2018-10-15T11:43:21.677Z,1.38
2018-10-15T11:44:21.737Z,1.65
2018-10-15T11:45:21.852Z,1.24
2018-10-15T11:46:22.008Z,0.82
2018-10-15T11:47:22.065Z,1.28
2018-10-15T11:48:22.185Z,0.99
2018-10-15T11:49:22.310Z,1.34
2018-10-15T11:50:22.453Z,1.16
2018-10-15T11:51:22.621Z,0.99
2018-10-15T11:52:22.810Z,0.35
2018-10-15T11:53:22.966Z,0.82
2018-10-15T11:54:22.966Z,0.80
2018-10-15T11:55:23.049Z,1.51
2018-10-15T11:56:23.111Z,1.52
2018-10-15T11:57:23.170Z,1.33
2018-10-15T11:58:23.249Z,1.42
2018-10-15T11:59:23.382Z,1.07
2018-10-15T12:00:23.220Z,0.93
2018-10-15T12:01:23.897Z,1.15
2018-10-15T12:02:23.984Z,1.10
2018-10-15T12:03:24.092Z,2.13
2018-10-15T12:04:24.436Z,2.31
2018-10-15T12:05:24.382Z,1.00
2018-10-15T12:06:24.845Z,1.19
2018-10-15T12:07:25.101Z,1.04
2018-10-15T12:08:25.354Z,1.28
2018-10-15T12:09:25.606Z,1.15
2018-10-15T12:10:25.857Z,1.06
2018-10-15T12:11:26.151Z,0.98
2018-10-15T12:12:26.405Z,0.93
2018-10-15T12:13:26.947Z,1.00
2018-10-15T12:14:26.712Z,1.14
2018-10-15T12:15:26.955Z,0.53
2018-10-15T12:16:27.346Z,1.00
2018-10-15T12:17:27.603Z,0.86
2018-10-15T12:18:27.854Z,0.62
2018-10-15T12:19:28.131Z,0.84
2018-10-15T12:20:28.398Z,1.17
2018-10-15T12:21:28.649Z,1.08
2018-10-15T12:22:28.909Z,1.08
2018-10-15T12:23:29.248Z,0.96
2018-10-15T12:24:29.581Z,1.11
2018-10-15T12:25:30.033Z,1.19
2018-10-15T12:26:30.296Z,1.46
2018-10-15T12:27:30.601Z,1.83
2018-10-15T12:28:31.049Z,1.64
2018-10-15T12:29:31.299Z,2.69
2018-10-15T12:30:31.522Z,3.11
2018-10-15T12:31:31.778Z,1.35
2018-10-15T12:32:32.032Z,1.24
2018-10-15T12:33:32.293Z,1.65
2018-10-15T12:34:32.562Z,2.16
2018-10-15T12:35:32.826Z,1.74
2018-10-15T12:36:33.277Z,0.90
2018-10-15T12:37:33.966Z,0.87
2018-10-15T12:38:34.107Z,1.18
2018-10-15T12:39:34.222Z,1.25
2018-10-15T12:40:34.419Z,0.94
2018-10-15T12:41:34.623Z,1.03
2018-10-15T12:42:34.748Z,1.90
2018-10-15T12:43:34.903Z,1.84
2018-10-15T12:44:35.059Z,2.10
2018-10-15T12:45:35.211Z,2.11
2018-10-15T12:46:35.461Z,1.78
2018-10-15T12:47:35.744Z,1.28
2018-10-15T12:48:35.843Z,2.14
2018-10-15T12:49:35.907Z,0.89
2018-10-15T12:50:36.052Z,1.78
2018-10-15T12:51:36.296Z,1.04
2018-10-15T12:52:36.401Z,2.24
2018-10-15T12:53:36.606Z,1.38
2018-10-15T12:54:36.531Z,1.62
2018-10-15T12:55:36.622Z,0.86
2018-10-15T12:56:36.744Z,1.33
2018-10-15T12:57:36.878Z,1.20
2018-10-15T12:58:36.936Z,1.41
2018-10-15T12:59:37.021Z,4.02
2018-10-15T13:00:37.097Z,2.05
2018-10-15T13:01:37.084Z,1.21
2018-10-15T13:02:37.628Z,2.08
2018-10-15T13:03:37.684Z,2.85
2018-10-15T13:04:37.735Z,2.43
2018-10-15T13:05:38.069Z,2.04
2018-10-15T13:06:38.131Z,1.95
2018-10-15T13:07:38.188Z,0.77
2018-10-15T13:08:38.250Z,0.79
2018-10-15T13:09:38.323Z,0.97
2018-10-15T13:10:38.403Z,1.54
2018-10-15T13:11:38.470Z,2.77
2018-10-15T13:12:38.862Z,1.15
2018-10-15T13:13:39.026Z,1.02
2018-10-15T13:14:38.925Z,0.58
2018-10-15T13:15:39.422Z,0.67
2018-10-15T13:16:39.442Z,1.89
2018-10-15T13:17:39.396Z,1.36
2018-10-15T13:18:39.638Z,1.46
2018-10-15T13:19:39.883Z,1.29
2018-10-15T13:20:40.163Z,1.84
2018-10-15T13:21:40.420Z,2.68
2018-10-15T13:22:40.721Z,2.39
2018-10-15T13:23:41.133Z,2.98
2018-10-15T13:24:41.386Z,2.12
2018-10-15T13:25:41.661Z,2.63
2018-10-15T13:26:42.005Z,1.78
2018-10-15T13:27:42.187Z,0.69
2018-10-15T13:28:42.448Z,0.84
2018-10-15T13:29:42.777Z,1.62